首页
METAR-TAF:

METAR-TAF

机场 :

朱利叶斯·尼雷尔国际机场

达累斯萨拉姆, 坦桑尼亚

纬度: 06-52S, 经度: 039-12E, 海拔: 55米

当前天气观测

该预报发布于1小时和13分钟前的16:00 UTC
风速6节,风向东北
温度 30°C
湿度 75%
气压 1009 hPa
能见度10公里或以上
少量云层高于1700英尺
少量云层高于1800英尺, 积雨云.

METAR: HTDA 161600Z 04006KT 9999 FEW017 FEW018CB 30/25 Q1009

时间: 20:13 (17:13 UTC)

预报

该预报发布于6小时和13分钟前的11:00 UTC
预报有效从16日的 12点(UTC)到 17日的 18点(UTC)
风速10节,风向东转东北
能见度10公里或以上
散云层高于2400英尺
成为
从 16日的 18点(UTC)到 16日的 21点(UTC)
风速节,风向
成为
从 17日的 06点(UTC)到 17日的 09点(UTC)
风速10节,风向东北
多云层高于2200英尺

TAF: HTDA 161100Z 1612/1718 06010KT 9999 SCT024 BECMG 1618/1621 00000KT BECMG 1706/1709 04010KT BKN022

超过4000个机场的气象观测和天气预报(METAR&TAF报告)。

可查询的气象台以黄色和红色小点在地图上表示。

将鼠标移到小点上方,可查看气象台名称。

然后点击查看天气观测和预报。

如需切换地图:点击带黑十字的绿色按钮放大地图;点击带横线的绿色按钮缩小地图;或者点击绿色箭头查看邻近地区的地图。


METAR-TAF: